Data for 12/31/2008

Time Sea-Level Adjusted Pressure Absolute Pressure Temperature Relative Humidity Dew Point   
(mb) (inHg) (mb) (inHg) (C) (F) (%) (C) (F)
00:05 1020 30.12 849 25.07 -7.1 19.1 58 -14.2 6.5
00:10 1020 30.12 849 25.07 -7.1 19.1 60 -13.7 7.3
00:15 1020 30.12 849 25.07 -7.2 19 60 -13.8 7.1
00:20 1020 30.12 849 25.07 -7.5 18.5 61 -13.9 7
00:25 1020 30.12 849 25.07 -7.5 18.4 58 -14.4 6.1
00:30 1020 30.12 849 25.07 -7.5 18.5 63 -13.5 7.7
00:35 1020 30.12 849 25.07 -7.7 18.2 61 -13.9 6.9
00:40 1020 30.12 849 25.07 -7.7 18.1 61 -14.1 6.7
00:45 1019 30.09 849 25.07 -7.7 18.2 64 -13.3 8.1
00:50 1019 30.09 849 25.07 -7.9 17.8 61 -14.2 6.5
00:55 1019 30.09 849 25.07 -7.7 18.1 63 -13.5 7.6
01:00 1019 30.09 848 25.04 -7.7 18.2 62 -13.7 7.4
01:05 1019 30.09 848 25.04 -7.7 18.2 63 -13.5 7.8
01:10 1019 30.09 848 25.04 -7.6 18.3 63 -13.5 7.6
01:15 1019 30.09 848 25.04 -7.6 18.3 66 -12.9 8.7
01:20 1019 30.09 848 25.04 -7.6 18.3 62 -13.7 7.4
01:25 1019 30.09 848 25.04 -7.5 18.4 62 -13.7 7.4
01:30 1019 30.09 848 25.04 -7.5 18.6 62 -13.5 7.6
01:35 1018 30.06 848 25.04 -7.4 18.7 61 -13.7 7.4
01:40 1018 30.06 848 25.04 -7.1 19.1 59 -13.8 7.2
01:45 1018 30.06 848 25.04 -7 19.5 60 -13.6 7.6
01:50 1018 30.06 847 25.01 -6.9 19.6 60 -13.5 7.7
01:55 1018 30.06 847 25.01 -6.8 19.8 57 -13.9 7
02:00 1018 30.06 847 25.01 -6.6 20.1 57 -13.9 7
02:05 1018 30.06 847 25.01 -6.4 20.5 57 -13.5 7.7
02:10 1018 30.06 847 25.01 -6.2 20.9 56 -13.6 7.4
02:15 1018 30.06 847 25.01 -6.1 21.1 57 -13.2 8.2
02:20 1018 30.06 847 25.01 -6.2 20.9 59 -13 8.6
02:25 1018 30.06 847 25.01 -6.1 20.9 60 -12.8 9
02:30 1018 30.06 847 25.01 -6.1 21.1 59 -12.7 9.1
02:35 1018 30.06 847 25.01 -5.9 21.3 61 -12.4 9.8
02:40 1017 30.03 847 25.01 -5.7 21.7 64 -11.5 11.2
02:45 1017 30.03 847 25.01 -5.4 22.3 65 -11 12.1
02:50 1017 30.03 846 24.98 -5.1 22.7 64 -10.8 12.5
02:55 1017 30.03 846 24.98 -5.1 22.8 65 -10.7 12.7
03:00 1017 30.03 846 24.98 -5 23 65 -10.7 12.7
03:05 1017 30.03 846 24.98 -5 23 67 -10.2 13.6
03:10 1017 30.03 846 24.98 -4.9 23.2 67 -10.1 13.9
03:15 1017 30.03 846 24.98 -4.9 23.1 69 -9.8 14.3
03:20 1017 30.03 846 24.98 -5 23.1 71 -9.5 14.9
03:25 1017 30.03 846 24.98 -4.9 23.1 70 -9.5 14.9
03:30 1016 30 846 24.98 -4.9 23.2 72 -9.3 15.3
03:35 1016 30 846 24.98 -4.8 23.3 73 -8.9 15.9
03:40 1016 30 846 24.98 -4.8 23.4 73 -8.8 16.1
03:45 1016 30 845 24.95 -4.7 23.5 75 -8.5 16.6
03:50 1016 30 845 24.95 -4.7 23.6 75 -8.5 16.8
03:55 1016 30 845 24.95 -4.6 23.8 76 -8.2 17.3
04:00 1016 30 845 24.95 -4.4 24.1 76 -8 17.7
04:05 1016 30 845 24.95 -4.4 24.2 76 -7.9 17.8
04:10 1016 30 845 24.95 -4.2 24.4 76 -7.8 17.9
04:15 1016 30 845 24.95 -4.1 24.6 75 -8 17.6
04:20 1016 30 845 24.95 -4 24.7 75 -7.9 17.8
04:25 1016 30 845 24.95 -4.1 24.6 75 -7.9 17.8
04:30 1016 30 845 24.95 -4.2 24.5 75 -7.9 17.7
04:35 1015 29.97 845 24.95 -4.3 24.2 76 -7.9 17.9
04:40 1015 29.97 845 24.95 -4.5 23.9 76 -8.2 17.2
04:45 1015 29.97 845 24.95 -4.8 23.4 75 -8.5 16.7
04:50 1015 29.97 845 24.95 -4.9 23.2 77 -8.4 17
04:55 1015 29.97 844 24.92 -5.1 22.9 77 -8.5 16.8
05:00 1015 29.97 844 24.92 -5.2 22.7 77 -8.6 16.6
05:05 1015 29.97 844 24.92 -5.4 22.3 77 -8.9 16.1
05:10 1015 29.97 844 24.92 -5.5 22.1 77 -8.9 16
05:15 1015 29.97 844 24.92 -5.5 22.1 77 -8.9 16
05:20 1015 29.97 844 24.92 -5.6 22 79 -8.7 16.3
05:25 1014 29.94 844 24.92 -5.6 21.9 78 -8.9 16
05:30 1015 29.97 844 24.92 -5.7 21.8 77 -9 15.7
05:35 1014 29.94 843 24.89 -5.6 22 77 -9 15.7
05:40 1014 29.94 843 24.89 -5.4 22.3 77 -8.8 16.2
05:45 1014 29.94 843 24.89 -5.4 22.3 80 -8.4 16.9
05:50 1014 29.94 843 24.89 -5.3 22.5 81 -8.1 17.4
05:55 1014 29.94 843 24.89 -4.9 23.1 80 -7.9 17.9
06:00 1014 29.94 843 24.89 -4.8 23.3 79 -7.9 17.8
06:05 1014 29.94 843 24.89 -4.8 23.3 79 -8 17.7
06:10 1013 29.91 843 24.89 -4.9 23.2 79 -8 17.6
06:15 1013 29.91 843 24.89 -4.9 23.2 79 -8 17.5
06:20 1013 29.91 843 24.89 -4.5 23.8 78 -7.9 17.8
06:25 1013 29.91 843 24.89 -4.2 24.4 76 -7.8 18
06:30 1013 29.91 843 24.89 -4.3 24.3 76 -7.9 17.8
06:35 1013 29.91 843 24.89 -4.2 24.4 76 -7.8 17.9
06:40 1013 29.91 842 24.86 -4.1 24.7 76 -7.6 18.2
06:45 1013 29.91 842 24.86 -3.8 25.2 75 -7.6 18.2
06:50 1013 29.91 842 24.86 -3.8 25.2 74 -7.7 18.1
06:55 1013 29.91 842 24.86 -4 24.8 78 -7.3 18.8
07:00 1013 29.91 842 24.86 -4.4 24.1 77 -7.9 17.8
07:05 1013 29.91 842 24.86 -5.1 22.8 78 -8.3 17
07:10 1013 29.91 842 24.86 -5.7 21.7 82 -8.4 16.9
07:15 1013 29.91 842 24.86 -5.9 21.3 82 -8.6 16.6
07:20 1013 29.91 842 24.86 -6 21.2 82 -8.6 16.6
07:25 1012 29.88 842 24.86 -6 21.3 82 -8.6 16.5
07:30 1012 29.88 842 24.86 -6 21.1 82 -8.7 16.3
07:35 1012 29.88 842 24.86 -5.9 21.4 84 -8.1 17.4
07:40 1012 29.88 842 24.86 -5.3 22.4 82 -7.9 17.7
07:45 1012 29.88 841 24.83 -5.2 22.7 81 -7.9 17.8
07:50 1012 29.88 841 24.83 -5.3 22.4 82 -8 17.6
07:55 1012 29.88 841 24.83 -5.1 22.7 80 -8 17.6
08:00 1012 29.88 841 24.83 -5 23 80 -7.9 17.9
08:05 1012 29.88 841 24.83 -4.4 24.1 77 -7.9 17.8
08:10 1012 29.88 841 24.83 -4.5 23.9 77 -7.9 17.8
08:15 1012 29.88 841 24.83 -4.4 24.2 77 -7.9 17.8
08:20 1012 29.88 841 24.83 -4.1 24.5 75 -8 17.6
08:25 1012 29.88 841 24.83 -3.9 24.9 74 -7.9 17.8
08:30 1012 29.88 841 24.83 -4.3 24.3 76 -8 17.6
08:35 1012 29.88 841 24.83 -4.4 24.2 75 -8.2 17.3
08:40 1012 29.88 841 24.83 -4.1 24.7 74 -8.1 17.4
08:45 1012 29.88 841 24.83 -4.3 24.2 76 -8 17.7
08:50 1012 29.88 841 24.83 -4.2 24.4 73 -8.4 16.9
08:55 1011 29.85 841 24.83 -3.4 25.8 67 -8.7 16.3
09:00 1011 29.85 841 24.83 -2.3 27.8 64 -8.3 17.1
09:05 1011 29.85 841 24.83 -2.4 27.6 64 -8.4 16.8
09:10 1011 29.85 841 24.83 -2.3 27.8 62 -8.7 16.3
09:15 1011 29.85 840 24.81 -1.9 28.6 61 -8.5 16.7
09:20 1011 29.85 840 24.81 -2 28.3 60 -8.9 16
09:25 1011 29.85 840 24.81 -2 28.5 60 -8.7 16.4
09:30 1011 29.85 840 24.81 -1.9 28.5 60 -8.6 16.5
09:35 1011 29.85 840 24.81 -1.8 28.7 59 -8.7 16.3
09:40 1011 29.85 840 24.81 -1.5 29.2 57 -9 15.8
09:45 1011 29.85 840 24.81 -1.2 29.9 57 -8.7 16.4
09:50 1011 29.85 840 24.81 -0.7 30.8 54 -8.8 16.2
09:55 1011 29.85 840 24.81 -0.5 31.1 52 -9.2 15.5
10:00 1011 29.85 840 24.81 -0.1 31.9 54 -8.4 17
10:05 1011 29.85 840 24.81 0.1 32.2 53 -8.4 16.8
10:10 1010 29.83 840 24.81 0.7 33.2 51 -8.4 17
10:15 1010 29.83 839 24.78 0.2 32.4 51 -8.6 16.5
10:20 1010 29.83 839 24.78 0.3 32.5 50 -8.9 15.9
10:25 1010 29.83 839 24.78 0.9 33.7 48 -9 15.9
10:30 1010 29.83 839 24.78 1.2 34.1 48 -8.6 16.6
10:35 1010 29.83 839 24.78 1.2 34.2 48 -8.6 16.6
10:40 1010 29.83 839 24.78 1.3 34.4 46 -9.2 15.5
10:45 1010 29.83 839 24.78 2.4 36.3 43 -8.9 16
10:50 1010 29.83 839 24.78 2.3 36.2 46 -8.2 17.3
10:55 1010 29.83 839 24.78 2.4 36.3 44 -8.5 16.7
11:00 1010 29.83 839 24.78 2.8 37.1 42 -8.7 16.3
11:05 1010 29.83 839 24.78 3.4 38.2 42 -8.3 17.1
11:10 1010 29.83 839 24.78 4.3 39.7 39 -8.5 16.7
11:15 1010 29.83 839 24.78 5 40.9 39 -7.9 17.8
11:20 1010 29.83 839 24.78 5.1 41.2 39 -7.7 18.1
11:25 1010 29.83 839 24.78 5.2 41.4 39 -7.8 18
11:30 1009 29.8 839 24.78 5.5 41.9 38 -7.7 18.2
11:35 1009 29.8 838 24.75 5.6 42.2 39 -7.4 18.8
11:40 1009 29.8 838 24.75 5.6 42.1 41 -6.6 20.1
11:45 1009 29.8 838 24.75 5.5 41.8 38 -7.7 18.2
11:50 1009 29.8 838 24.75 5.7 42.3 40 -7 19.5
11:55 1008 29.77 838 24.75 5.9 42.6 39 -7.2 19.1
12:00 1008 29.77 838 24.75 5.8 42.4 40 -6.8 19.8
12:05 1008 29.77 838 24.75 5.4 41.7 40 -7 19.4
12:10 1008 29.77 837 24.72 5.6 42 39 -7.2 19
12:15 1008 29.77 837 24.72 5.7 42.3 37 -7.8 18
12:20 1008 29.77 837 24.72 5.8 42.4 39 -7.1 19.2
12:25 1008 29.77 837 24.72 5.7 42.3 38 -7.6 18.4
12:30 1008 29.77 837 24.72 5.8 42.4 39 -7.1 19.2
12:35 1008 29.77 837 24.72 5.6 42.1 38 -7.4 18.6
12:40 1008 29.77 837 24.72 5.7 42.3 36 -8.3 17.1
12:45 1008 29.77 837 24.72 5.8 42.4 36 -8.1 17.4
12:50 1008 29.77 837 24.72 5.6 42.1 40 -7 19.3
12:55 1008 29.77 837 24.72 5.4 41.7 38 -7.8 18
13:00 1008 29.77 837 24.72 5.5 41.8 39 -7.5 18.6
13:05 1008 29.77 837 24.72 5.4 41.7 38 -7.7 18.2
13:10 1008 29.77 837 24.72 5.4 41.7 39 -7.3 18.8
13:15 1008 29.77 837 24.72 5.3 41.5 38 -7.8 18
13:20 1008 29.77 837 24.72 5.3 41.6 38 -7.8 17.9
13:25 1008 29.77 837 24.72 5.3 41.6 38 -7.9 17.8
13:30 1007 29.74 837 24.72 5.3 41.5 39 -7.7 18.2
13:35 1008 29.77 837 24.72 5.2 41.4 39 -7.7 18.1
13:40 1008 29.77 837 24.72 5.1 41.2 39 -7.6 18.3
13:45 1008 29.77 837 24.72 5 40.9 39 -7.9 17.9
13:50 1008 29.77 837 24.72 4.9 40.8 39 -8.1 17.5
13:55 1007 29.74 837 24.72 5 41 40 -7.5 18.5
14:00 1007 29.74 836 24.69 4.9 40.9 40 -7.6 18.3
14:05 1007 29.74 836 24.69 4.9 40.9 39 -8 17.6
14:10 1007 29.74 836 24.69 5 41.1 39 -7.8 18
14:15 1007 29.74 836 24.69 5 40.9 39 -7.8 18
14:20 1007 29.74 836 24.69 4.9 40.8 40 -7.5 18.4
14:25 1007 29.74 836 24.69 4.8 40.7 40 -7.7 18.2
14:30 1007 29.74 836 24.69 4.8 40.7 38 -8.1 17.3
14:35 1007 29.74 836 24.69 4.9 40.9 41 -7.3 18.9
14:40 1007 29.74 836 24.69 4.7 40.5 42 -7.2 19.1
14:45 1007 29.74 836 24.69 4.7 40.5 42 -7.2 19.1
14:50 1007 29.74 836 24.69 4.6 40.3 42 -7.3 18.8
14:55 1007 29.74 836 24.69 4.7 40.5 41 -7.3 18.8
15:00 1007 29.74 836 24.69 4.7 40.5 42 -7.1 19.3
15:05 1007 29.74 836 24.69 4.7 40.5 40 -7.9 17.8
15:10 1007 29.74 836 24.69 4.7 40.5 42 -7 19.4
15:15 1007 29.74 836 24.69 4.6 40.3 40 -7.8 18
15:20 1007 29.74 836 24.69 4.6 40.4 42 -7.1 19.3
15:25 1007 29.74 836 24.69 4.5 40 42 -7.2 19
15:30 1007 29.74 836 24.69 4.4 39.9 44 -6.9 19.5
15:35 1007 29.74 836 24.69 4.3 39.7 42 -7.4 18.6
15:40 1007 29.74 836 24.69 4.2 39.6 45 -6.7 19.9
15:45 1007 29.74 836 24.69 4.1 39.3 44 -7.1 19.3
15:50 1007 29.74 836 24.69 4.1 39.3 43 -7.5 18.6
15:55 1007 29.74 836 24.69 4 39.3 45 -6.9 19.6
16:00 1007 29.74 836 24.69 3.9 39.1 44 -7.1 19.2
16:05 1007 29.74 836 24.69 3.9 39 45 -7 19.4
16:10 1007 29.74 836 24.69 3.9 39 45 -7.1 19.3
16:15 1007 29.74 836 24.69 3.9 39 44 -7.2 19
16:20 1007 29.74 836 24.69 3.8 38.8 47 -6.6 20.1
16:25 1007 29.74 836 24.69 3.6 38.5 46 -6.9 19.6
16:30 1007 29.74 837 24.72 3.7 38.7 47 -6.7 20
16:35 1007 29.74 837 24.72 3.7 38.6 47 -6.6 20.1
16:40 1007 29.74 836 24.69 3.6 38.4 47 -6.8 19.8
16:45 1007 29.74 836 24.69 3.5 38.3 48 -6.5 20.4
16:50 1007 29.74 836 24.69 3.4 38.1 49 -6.5 20.4
16:55 1007 29.74 836 24.69 3.3 37.9 49 -6.5 20.2
17:00 1007 29.74 836 24.69 3.2 37.8 50 -6.3 20.7
17:05 1007 29.74 836 24.69 3.2 37.8 49 -6.5 20.3
17:10 1007 29.74 836 24.69 3.3 37.9 51 -6 21.2
17:15 1007 29.74 836 24.69 3.1 37.5 52 -6 21.3
17:20 1007 29.74 836 24.69 3 37.3 53 -5.8 21.6
17:25 1007 29.74 836 24.69 2.9 37.1 52 -6 21.2
17:30 1007 29.74 836 24.69 2.8 37.1 53 -5.9 21.4
17:35 1007 29.74 836 24.69 2.8 37.1 53 -5.8 21.6
17:40 1007 29.74 836 24.69 2.8 37 54 -5.6 21.9
17:45 1007 29.74 836 24.69 2.7 36.9 54 -5.7 21.7
17:50 1006 29.71 836 24.69 2.7 36.9 53 -5.9 21.4
17:55 1006 29.71 836 24.69 2.8 37 54 -5.7 21.8
18:00 1007 29.74 836 24.69 2.8 37 54 -5.7 21.8
18:05 1007 29.74 836 24.69 2.8 37 56 -5.2 22.6
18:10 1007 29.74 836 24.69 2.7 36.9 58 -4.8 23.3
18:15 1007 29.74 836 24.69 2.6 36.6 58 -4.9 23.1
18:20 1007 29.74 836 24.69 2.6 36.8 57 -5 23
18:25 1007 29.74 836 24.69 2.8 37 55 -5.4 22.3
18:30 1007 29.74 836 24.69 3 37.3 54 -5.5 22.2
18:35 1007 29.74 836 24.69 3 37.3 54 -5.3 22.4
18:40 1007 29.74 836 24.69 3 37.4 55 -5.2 22.6
18:45 1007 29.74 836 24.69 3 37.5 56 -5 23.1
18:50 1007 29.74 836 24.69 2.9 37.2 58 -4.6 23.6
18:55 1007 29.74 836 24.69 2.7 36.9 58 -4.7 23.6
19:00 1007 29.74 836 24.69 2.6 36.6 58 -4.9 23.2
19:05 1007 29.74 836 24.69 2.5 36.5 60 -4.4 24.1
19:10 1007 29.74 836 24.69 2.2 36 63 -4 24.8
19:15 1007 29.74 836 24.69 1.9 35.4 64 -4.1 24.6
19:20 1007 29.74 837 24.72 1.8 35.3 65 -4 24.8
19:25 1007 29.74 837 24.72 1.8 35.2 64 -4.2 24.4
19:30 1007 29.74 837 24.72 1.8 35.2 66 -3.9 24.9
19:35 1008 29.77 837 24.72 1.5 34.7 68 -3.8 25.2
19:40 1008 29.77 837 24.72 1.3 34.3 70 -3.7 25.4
19:45 1008 29.77 837 24.72 1.1 34.1 70 -3.7 25.3
19:50 1008 29.77 837 24.72 1.1 34 70 -3.8 25.2
19:55 1008 29.77 837 24.72 1.1 34.1 70 -3.7 25.4
20:00 1008 29.77 837 24.72 1.1 33.9 69 -3.9 24.9
20:05 1008 29.77 837 24.72 1 33.7 68 -4.3 24.3
20:10 1008 29.77 837 24.72 0.9 33.6 68 -4.3 24.3
20:15 1008 29.77 837 24.72 0.8 33.5 68 -4.4 24.2
20:20 1008 29.77 837 24.72 0.8 33.4 69 -4.4 24.1
20:25 1008 29.77 837 24.72 0.7 33.3 68 -4.6 23.8
20:30 1008 29.77 837 24.72 0.8 33.4 66 -4.8 23.4
20:35 1008 29.77 837 24.72 1 33.8 64 -5 23
20:40 1008 29.77 837 24.72 1.1 34 65 -4.7 23.5
20:45 1008 29.77 838 24.75 1.1 33.9 65 -4.7 23.5
20:50 1008 29.77 838 24.75 1.1 33.9 65 -4.7 23.5
20:55 1008 29.77 838 24.75 1.1 33.9 65 -4.8 23.3
21:00 1009 29.8 838 24.75 1.1 33.9 64 -4.9 23.2
21:05 1009 29.8 838 24.75 1 33.9 65 -4.8 23.4
21:10 1009 29.8 838 24.75 1 33.7 65 -4.9 23.2
21:15 1009 29.8 838 24.75 1 33.8 66 -4.7 23.5
21:20 1009 29.8 838 24.75 0.7 33.2 66 -5 23
21:25 1009 29.8 838 24.75 0.5 32.8 65 -5.4 22.2
21:30 1009 29.8 838 24.75 0.4 32.7 64 -5.6 22
21:35 1009 29.8 838 24.75 0.4 32.8 61 -6.2 20.9
21:40 1009 29.8 838 24.75 0.6 33.1 60 -6.2 20.8
21:45 1009 29.8 838 24.75 0.7 33.2 59 -6.4 20.5
21:50 1009 29.8 838 24.75 0.6 33.2 59 -6.5 20.3
21:55 1009 29.8 838 24.75 0.6 33.1 58 -6.8 19.7
22:00 1009 29.8 838 24.75 0.5 32.9 56 -7.2 19.1
22:05 1009 29.8 838 24.75 0.4 32.8 57 -7 19.3
22:10 1009 29.8 838 24.75 0.5 32.8 58 -6.9 19.5
22:15 1009 29.8 838 24.75 0.4 32.7 58 -7 19.4
22:20 1009 29.8 838 24.75 0.2 32.4 56 -7.5 18.6
22:25 1009 29.8 838 24.75 0.1 32.1 56 -7.7 18.2
22:30 1009 29.8 838 24.75 0 32.1 54 -8.1 17.3
22:35 1009 29.8 838 24.75 0.1 32.2 54 -8.2 17.3
22:40 1009 29.8 838 24.75 0 32.1 54 -8.1 17.4
22:45 1009 29.8 838 24.75 -0 32 54 -8.3 17.1
22:50 1009 29.8 838 24.75 0 32 53 -8.4 16.9
22:55 1009 29.8 838 24.75 0.1 32.1 51 -8.9 15.9
23:00 1009 29.8 838 24.75 0.2 32.3 50 -8.9 15.9
23:05 1009 29.8 838 24.75 0.2 32.4 52 -8.7 16.4
23:10 1009 29.8 838 24.75 0.1 32.2 53 -8.4 16.9
23:15 1009 29.8 838 24.75 0 32.1 53 -8.5 16.7
23:20 1009 29.8 838 24.75 -0.1 31.9 54 -8.3 17
23:25 1009 29.8 839 24.78 -0.2 31.6 55 -8.3 17.1
23:30 1009 29.8 839 24.78 -0.3 31.4 56 -8.2 17.3
23:35 1010 29.83 839 24.78 -0.4 31.3 56 -8.2 17.3
23:40 1010 29.83 839 24.78 -0.5 31.2 56 -8.2 17.2
23:45 1010 29.83 839 24.78 -0.5 31.1 57 -7.9 17.7
23:50 1010 29.83 839 24.78 -0.7 30.8 59 -7.6 18.3
23:55 1010 29.83 839 24.78 -0.8 30.5 58 -8 17.6
24:00 1010 29.83 839 24.78 -0.9 30.3 59 -8 17.7